sensor_id;sensor_type;location;lat;lon;timestamp;temperature;humidity
21255;DHT22;10785;50.674;17.954;2024-03-02T00:01:57;9.60;99.90
21255;DHT22;10785;50.674;17.954;2024-03-02T00:04:37;9.60;99.90
21255;DHT22;10785;50.674;17.954;2024-03-02T00:07:28;9.60;99.90
21255;DHT22;10785;50.674;17.954;2024-03-02T00:10:14;9.50;99.90
21255;DHT22;10785;50.674;17.954;2024-03-02T00:13:10;9.50;99.90
21255;DHT22;10785;50.674;17.954;2024-03-02T00:15:56;9.50;99.90
21255;DHT22;10785;50.674;17.954;2024-03-02T00:18:39;9.40;99.90
21255;DHT22;10785;50.674;17.954;2024-03-02T00:21:28;9.40;99.90
21255;DHT22;10785;50.674;17.954;2024-03-02T00:24:21;9.40;99.90
21255;DHT22;10785;50.674;17.954;2024-03-02T00:27:06;9.40;99.90
21255;DHT22;10785;50.674;17.954;2024-03-02T00:29:43;9.40;99.90
21255;DHT22;10785;50.674;17.954;2024-03-02T00:32:24;9.40;99.90
21255;DHT22;10785;50.674;17.954;2024-03-02T00:35:01;9.40;99.90
21255;DHT22;10785;50.674;17.954;2024-03-02T00:37:44;9.60;99.90
21255;DHT22;10785;50.674;17.954;2024-03-02T00:40:30;9.40;99.90
21255;DHT22;10785;50.674;17.954;2024-03-02T00:43:54;9.30;99.90
21255;DHT22;10785;50.674;17.954;2024-03-02T00:46:42;9.40;99.90
21255;DHT22;10785;50.674;17.954;2024-03-02T00:49:24;9.30;99.90
21255;DHT22;10785;50.674;17.954;2024-03-02T00:52:07;9.30;99.90
21255;DHT22;10785;50.674;17.954;2024-03-02T00:54:57;9.30;99.90
21255;DHT22;10785;50.674;17.954;2024-03-02T00:57:44;9.30;99.90
21255;DHT22;10785;50.674;17.954;2024-03-02T01:00:30;9.30;99.90
21255;DHT22;10785;50.674;17.954;2024-03-02T01:03:14;9.50;99.90
21255;DHT22;10785;50.674;17.954;2024-03-02T01:06:02;9.40;99.90
21255;DHT22;10785;50.674;17.954;2024-03-02T01:08:42;9.30;99.90
21255;DHT22;10785;50.674;17.954;2024-03-02T01:11:35;9.50;99.90
21255;DHT22;10785;50.674;17.954;2024-03-02T01:14:11;9.30;99.90
21255;DHT22;10785;50.674;17.954;2024-03-02T01:16:53;9.20;99.90
21255;DHT22;10785;50.674;17.954;2024-03-02T01:19:30;9.20;99.90
21255;DHT22;10785;50.674;17.954;2024-03-02T01:22:13;9.20;99.90
21255;DHT22;10785;50.674;17.954;2024-03-02T01:24:56;9.20;99.90
21255;DHT22;10785;50.674;17.954;2024-03-02T01:27:44;9.20;99.90
21255;DHT22;10785;50.674;17.954;2024-03-02T01:30:35;9.10;99.90
21255;DHT22;10785;50.674;17.954;2024-03-02T01:33:14;9.30;99.90
21255;DHT22;10785;50.674;17.954;2024-03-02T01:35:50;9.30;99.90
21255;DHT22;10785;50.674;17.954;2024-03-02T01:38:30;9.20;99.90
21255;DHT22;10785;50.674;17.954;2024-03-02T01:41:08;9.20;99.90
21255;DHT22;10785;50.674;17.954;2024-03-02T01:43:55;9.20;99.90
21255;DHT22;10785;50.674;17.954;2024-03-02T01:46:40;9.30;99.90
21255;DHT22;10785;50.674;17.954;2024-03-02T01:49:15;9.30;99.90
21255;DHT22;10785;50.674;17.954;2024-03-02T01:51:58;9.30;99.90
21255;DHT22;10785;50.674;17.954;2024-03-02T01:54:36;9.30;99.90
21255;DHT22;10785;50.674;17.954;2024-03-02T01:57:18;9.80;99.90
21255;DHT22;10785;50.674;17.954;2024-03-02T02:00:09;9.30;99.90
21255;DHT22;10785;50.674;17.954;2024-03-02T02:02:54;9.40;99.90
21255;DHT22;10785;50.674;17.954;2024-03-02T02:05:37;9.30;99.90
21255;DHT22;10785;50.674;17.954;2024-03-02T02:08:14;9.30;99.90
21255;DHT22;10785;50.674;17.954;2024-03-02T02:10:53;9.40;99.90
21255;DHT22;10785;50.674;17.954;2024-03-02T02:13:41;9.40;99.90
21255;DHT22;10785;50.674;17.954;2024-03-02T02:16:24;9.30;99.90
21255;DHT22;10785;50.674;17.954;2024-03-02T02:19:01;9.30;99.90
21255;DHT22;10785;50.674;17.954;2024-03-02T02:21:52;9.30;99.90
21255;DHT22;10785;50.674;17.954;2024-03-02T02:24:28;9.40;99.90
21255;DHT22;10785;50.674;17.954;2024-03-02T02:27:13;9.30;99.90
21255;DHT22;10785;50.674;17.954;2024-03-02T02:29:52;9.40;99.90
21255;DHT22;10785;50.674;17.954;2024-03-02T02:32:32;9.50;99.90
21255;DHT22;10785;50.674;17.954;2024-03-02T02:35:08;9.40;99.90
21255;DHT22;10785;50.674;17.954;2024-03-02T02:37:49;9.40;99.90
21255;DHT22;10785;50.674;17.954;2024-03-02T02:40:24;9.40;99.90
21255;DHT22;10785;50.674;17.954;2024-03-02T02:43:04;9.40;99.90
21255;DHT22;10785;50.674;17.954;2024-03-02T02:45:43;9.40;99.90
21255;DHT22;10785;50.674;17.954;2024-03-02T02:48:26;9.50;99.90
21255;DHT22;10785;50.674;17.954;2024-03-02T02:51:13;9.40;99.90
21255;DHT22;10785;50.674;17.954;2024-03-02T02:54:07;9.30;99.90
21255;DHT22;10785;50.674;17.954;2024-03-02T02:56:44;9.50;99.90
21255;DHT22;10785;50.674;17.954;2024-03-02T02:59:24;9.40;99.90
21255;DHT22;10785;50.674;17.954;2024-03-02T03:02:12;9.90;99.90
21255;DHT22;10785;50.674;17.954;2024-03-02T03:04:52;9.40;99.90
21255;DHT22;10785;50.674;17.954;2024-03-02T03:07:41;9.40;99.90
21255;DHT22;10785;50.674;17.954;2024-03-02T03:10:31;9.30;99.90
21255;DHT22;10785;50.674;17.954;2024-03-02T03:13:08;9.40;99.90
21255;DHT22;10785;50.674;17.954;2024-03-02T03:15:40;9.40;99.90
21255;DHT22;10785;50.674;17.954;2024-03-02T03:18:19;9.30;99.90
21255;DHT22;10785;50.674;17.954;2024-03-02T03:21:00;9.30;99.90
21255;DHT22;10785;50.674;17.954;2024-03-02T03:23:38;9.30;99.90
21255;DHT22;10785;50.674;17.954;2024-03-02T03:26:15;9.20;99.90
21255;DHT22;10785;50.674;17.954;2024-03-02T03:28:49;9.30;99.90
21255;DHT22;10785;50.674;17.954;2024-03-02T03:31:31;9.20;99.90
21255;DHT22;10785;50.674;17.954;2024-03-02T03:34:05;9.20;99.90
21255;DHT22;10785;50.674;17.954;2024-03-02T03:36:46;9.20;99.90
21255;DHT22;10785;50.674;17.954;2024-03-02T03:39:29;9.20;99.90
21255;DHT22;10785;50.674;17.954;2024-03-02T03:42:16;9.20;99.90
21255;DHT22;10785;50.674;17.954;2024-03-02T03:44:57;9.10;99.90
21255;DHT22;10785;50.674;17.954;2024-03-02T03:47:41;9.10;99.90
21255;DHT22;10785;50.674;17.954;2024-03-02T03:50:25;9.10;99.90
21255;DHT22;10785;50.674;17.954;2024-03-02T03:53:15;9.50;99.90
21255;DHT22;10785;50.674;17.954;2024-03-02T03:56:10;8.90;99.90
21255;DHT22;10785;50.674;17.954;2024-03-02T03:59:02;8.90;99.90
21255;DHT22;10785;50.674;17.954;2024-03-02T04:01:43;8.90;99.90
21255;DHT22;10785;50.674;17.954;2024-03-02T04:04:34;8.80;99.90
21255;DHT22;10785;50.674;17.954;2024-03-02T04:07:25;8.80;99.90
21255;DHT22;10785;50.674;17.954;2024-03-02T04:10:15;8.90;99.90
21255;DHT22;10785;50.674;17.954;2024-03-02T04:13:01;8.80;99.90
21255;DHT22;10785;50.674;17.954;2024-03-02T04:15:47;8.70;99.90
21255;DHT22;10785;50.674;17.954;2024-03-02T04:18:29;8.80;99.90
21255;DHT22;10785;50.674;17.954;2024-03-02T04:21:15;8.80;99.90
21255;DHT22;10785;50.674;17.954;2024-03-02T04:24:04;8.70;99.90
21255;DHT22;10785;50.674;17.954;2024-03-02T04:26:42;8.80;99.90
21255;DHT22;10785;50.674;17.954;2024-03-02T04:29:28;8.70;99.90
21255;DHT22;10785;50.674;17.954;2024-03-02T04:32:27;9.20;99.90
21255;DHT22;10785;50.674;17.954;2024-03-02T04:35:12;8.80;99.90
21255;DHT22;10785;50.674;17.954;2024-03-02T04:37:58;8.60;99.90
21255;DHT22;10785;50.674;17.954;2024-03-02T04:40:48;9.20;99.90
21255;DHT22;10785;50.674;17.954;2024-03-02T04:43:30;9.20;99.90
21255;DHT22;10785;50.674;17.954;2024-03-02T04:46:23;8.70;99.90
21255;DHT22;10785;50.674;17.954;2024-03-02T04:49:15;8.60;99.90
21255;DHT22;10785;50.674;17.954;2024-03-02T04:52:04;8.60;99.90
21255;DHT22;10785;50.674;17.954;2024-03-02T04:55:04;8.70;99.90
21255;DHT22;10785;50.674;17.954;2024-03-02T04:58:04;8.70;99.90
21255;DHT22;10785;50.674;17.954;2024-03-02T05:00:45;8.60;99.90
21255;DHT22;10785;50.674;17.954;2024-03-02T05:03:25;8.60;99.90
21255;DHT22;10785;50.674;17.954;2024-03-02T05:06:18;8.60;99.90
21255;DHT22;10785;50.674;17.954;2024-03-02T05:09:03;8.50;99.90
21255;DHT22;10785;50.674;17.954;2024-03-02T05:11:49;8.50;99.90
21255;DHT22;10785;50.674;17.954;2024-03-02T05:14:49;8.40;99.90
21255;DHT22;10785;50.674;17.954;2024-03-02T05:17:19;8.40;99.90
21255;DHT22;10785;50.674;17.954;2024-03-02T05:19:51;8.20;99.90
21255;DHT22;10785;50.674;17.954;2024-03-02T05:22:41;8.40;99.90
21255;DHT22;10785;50.674;17.954;2024-03-02T05:25:27;8.20;99.90
21255;DHT22;10785;50.674;17.954;2024-03-02T05:28:12;8.10;99.90
21255;DHT22;10785;50.674;17.954;2024-03-02T05:30:57;8.10;99.90
21255;DHT22;10785;50.674;17.954;2024-03-02T05:33:53;8.10;99.90
21255;DHT22;10785;50.674;17.954;2024-03-02T05:36:37;8.10;99.90
21255;DHT22;10785;50.674;17.954;2024-03-02T05:39:25;8.00;99.90
21255;DHT22;10785;50.674;17.954;2024-03-02T05:41:57;7.90;99.90
21255;DHT22;10785;50.674;17.954;2024-03-02T05:44:32;7.90;99.90
21255;DHT22;10785;50.674;17.954;2024-03-02T05:47:06;8.00;99.90
21255;DHT22;10785;50.674;17.954;2024-03-02T05:49:37;8.40;99.90
21255;DHT22;10785;50.674;17.954;2024-03-02T05:52:13;7.50;99.90
21255;DHT22;10785;50.674;17.954;2024-03-02T05:55:02;8.00;99.90
21255;DHT22;10785;50.674;17.954;2024-03-02T05:57:46;8.50;99.90
21255;DHT22;10785;50.674;17.954;2024-03-02T06:00:43;8.50;99.90
21255;DHT22;10785;50.674;17.954;2024-03-02T06:03:18;8.00;99.90
21255;DHT22;10785;50.674;17.954;2024-03-02T06:05:48;8.30;99.90
21255;DHT22;10785;50.674;17.954;2024-03-02T06:08:21;8.20;99.90
21255;DHT22;10785;50.674;17.954;2024-03-02T06:10:55;8.70;99.90
21255;DHT22;10785;50.674;17.954;2024-03-02T06:13:30;8.20;99.90
21255;DHT22;10785;50.674;17.954;2024-03-02T06:16:04;8.20;99.90
21255;DHT22;10785;50.674;17.954;2024-03-02T06:18:43;8.30;99.90
21255;DHT22;10785;50.674;17.954;2024-03-02T06:21:19;8.40;99.90
21255;DHT22;10785;50.674;17.954;2024-03-02T06:24:08;8.50;99.90
21255;DHT22;10785;50.674;17.954;2024-03-02T06:26:46;8.60;99.90
21255;DHT22;10785;50.674;17.954;2024-03-02T06:29:23;8.70;99.90
21255;DHT22;10785;50.674;17.954;2024-03-02T06:32:11;9.30;99.90
21255;DHT22;10785;50.674;17.954;2024-03-02T06:34:55;9.10;99.90
21255;DHT22;10785;50.674;17.954;2024-03-02T06:37:31;8.90;99.90
21255;DHT22;10785;50.674;17.954;2024-03-02T06:40:02;9.00;99.90
21255;DHT22;10785;50.674;17.954;2024-03-02T06:42:42;9.00;99.90
21255;DHT22;10785;50.674;17.954;2024-03-02T06:45:18;9.00;99.90
21255;DHT22;10785;50.674;17.954;2024-03-02T06:47:49;9.10;99.90
21255;DHT22;10785;50.674;17.954;2024-03-02T06:50:20;9.00;99.90
21255;DHT22;10785;50.674;17.954;2024-03-02T06:52:57;9.10;99.90
21255;DHT22;10785;50.674;17.954;2024-03-02T06:55:36;9.00;99.90
21255;DHT22;10785;50.674;17.954;2024-03-02T06:58:16;9.00;1.00
21255;DHT22;10785;50.674;17.954;2024-03-02T07:00:54;9.00;1.00
21255;DHT22;10785;50.674;17.954;2024-03-02T07:03:23;9.10;1.00
21255;DHT22;10785;50.674;17.954;2024-03-02T07:05:53;9.20;1.00
21255;DHT22;10785;50.674;17.954;2024-03-02T07:08:26;9.20;20.50
21255;DHT22;10785;50.674;17.954;2024-03-02T07:10:57;9.20;1.00
21255;DHT22;10785;50.674;17.954;2024-03-02T07:13:28;8.40;1.00
21255;DHT22;10785;50.674;17.954;2024-03-02T07:15:57;9.40;1.00
21255;DHT22;10785;50.674;17.954;2024-03-02T07:19:14;9.20;99.90
21255;DHT22;10785;50.674;17.954;2024-03-02T07:21:46;9.30;1.00
21255;DHT22;10785;50.674;17.954;2024-03-02T07:24:30;9.40;99.90
21255;DHT22;10785;50.674;17.954;2024-03-02T07:27:00;9.40;1.00
21255;DHT22;10785;50.674;17.954;2024-03-02T07:29:33;9.50;1.00
21255;DHT22;10785;50.674;17.954;2024-03-02T07:32:03;9.60;1.00
21255;DHT22;10785;50.674;17.954;2024-03-02T07:34:38;9.70;83.60
21255;DHT22;10785;50.674;17.954;2024-03-02T07:37:18;9.90;1.00
21255;DHT22;10785;50.674;17.954;2024-03-02T07:40:02;9.80;1.00
21255;DHT22;10785;50.674;17.954;2024-03-02T07:42:37;9.90;1.00
21255;DHT22;10785;50.674;17.954;2024-03-02T07:45:10;10.00;99.90
21255;DHT22;10785;50.674;17.954;2024-03-02T07:47:46;10.00;1.00
21255;DHT22;10785;50.674;17.954;2024-03-02T07:50:29;10.00;1.00
21255;DHT22;10785;50.674;17.954;2024-03-02T07:53:10;10.20;1.00
21255;DHT22;10785;50.674;17.954;2024-03-02T07:55:47;10.20;1.00
21255;DHT22;10785;50.674;17.954;2024-03-02T07:58:34;10.40;99.90
21255;DHT22;10785;50.674;17.954;2024-03-02T08:01:09;10.60;99.90
21255;DHT22;10785;50.674;17.954;2024-03-02T08:03:46;10.80;1.00
21255;DHT22;10785;50.674;17.954;2024-03-02T08:06:29;10.80;1.00
21255;DHT22;10785;50.674;17.954;2024-03-02T08:09:06;11.00;1.00
21255;DHT22;10785;50.674;17.954;2024-03-02T08:11:44;11.20;1.00
21255;DHT22;10785;50.674;17.954;2024-03-02T08:14:20;11.30;99.90
21255;DHT22;10785;50.674;17.954;2024-03-02T08:16:51;11.40;99.90
21255;DHT22;10785;50.674;17.954;2024-03-02T08:19:35;11.60;17.00
21255;DHT22;10785;50.674;17.954;2024-03-02T08:22:09;11.70;1.00
21255;DHT22;10785;50.674;17.954;2024-03-02T08:24:45;11.90;1.00
21255;DHT22;10785;50.674;17.954;2024-03-02T08:27:32;11.80;1.00
21255;DHT22;10785;50.674;17.954;2024-03-02T08:30:03;11.80;1.00
21255;DHT22;10785;50.674;17.954;2024-03-02T08:32:39;11.90;1.00
21255;DHT22;10785;50.674;17.954;2024-03-02T08:35:13;11.80;1.00
21255;DHT22;10785;50.674;17.954;2024-03-02T08:37:49;11.80;1.00
21255;DHT22;10785;50.674;17.954;2024-03-02T08:40:31;11.60;1.00
21255;DHT22;10785;50.674;17.954;2024-03-02T08:43:08;11.60;1.00
21255;DHT22;10785;50.674;17.954;2024-03-02T08:45:45;11.50;1.00
21255;DHT22;10785;50.674;17.954;2024-03-02T08:48:21;11.50;1.00
21255;DHT22;10785;50.674;17.954;2024-03-02T08:50:57;11.50;1.00
21255;DHT22;10785;50.674;17.954;2024-03-02T08:53:39;11.50;1.00
21255;DHT22;10785;50.674;17.954;2024-03-02T08:56:23;11.60;1.00
21255;DHT22;10785;50.674;17.954;2024-03-02T08:58:56;11.70;1.00
21255;DHT22;10785;50.674;17.954;2024-03-02T09:01:38;11.80;1.00
21255;DHT22;10785;50.674;17.954;2024-03-02T09:04:23;12.00;1.00
21255;DHT22;10785;50.674;17.954;2024-03-02T09:07:06;12.30;1.00
21255;DHT22;10785;50.674;17.954;2024-03-02T09:09:48;12.40;1.00
21255;DHT22;10785;50.674;17.954;2024-03-02T09:12:36;12.60;1.00
21255;DHT22;10785;50.674;17.954;2024-03-02T09:15:21;12.80;1.00
21255;DHT22;10785;50.674;17.954;2024-03-02T09:17:56;12.90;99.90
21255;DHT22;10785;50.674;17.954;2024-03-02T09:20:34;12.10;99.90
21255;DHT22;10785;50.674;17.954;2024-03-02T09:23:24;13.10;99.90
21255;DHT22;10785;50.674;17.954;2024-03-02T09:26:14;12.80;99.90
21255;DHT22;10785;50.674;17.954;2024-03-02T09:28:54;12.90;99.90
21255;DHT22;10785;50.674;17.954;2024-03-02T09:31:31;13.10;99.90
21255;DHT22;10785;50.674;17.954;2024-03-02T09:34:12;13.30;99.90
21255;DHT22;10785;50.674;17.954;2024-03-02T09:36:48;13.40;99.90
21255;DHT22;10785;50.674;17.954;2024-03-02T09:39:35;13.60;99.90
21255;DHT22;10785;50.674;17.954;2024-03-02T09:42:23;13.80;99.90
21255;DHT22;10785;50.674;17.954;2024-03-02T09:45:03;13.80;99.90
21255;DHT22;10785;50.674;17.954;2024-03-02T09:47:44;13.80;99.90
21255;DHT22;10785;50.674;17.954;2024-03-02T09:50:17;13.90;99.90
21255;DHT22;10785;50.674;17.954;2024-03-02T09:52:52;14.00;99.90
21255;DHT22;10785;50.674;17.954;2024-03-02T09:55:25;14.10;99.90
21255;DHT22;10785;50.674;17.954;2024-03-02T09:57:58;14.20;99.90
21255;DHT22;10785;50.674;17.954;2024-03-02T10:00:30;14.40;99.90
21255;DHT22;10785;50.674;17.954;2024-03-02T10:03:00;14.50;99.90
21255;DHT22;10785;50.674;17.954;2024-03-02T10:05:44;14.70;99.90
21255;DHT22;10785;50.674;17.954;2024-03-02T10:08:18;14.70;99.90
21255;DHT22;10785;50.674;17.954;2024-03-02T10:10:51;14.80;99.90
21255;DHT22;10785;50.674;17.954;2024-03-02T10:13:35;14.80;99.30
21255;DHT22;10785;50.674;17.954;2024-03-02T10:16:18;14.80;77.00
21255;DHT22;10785;50.674;17.954;2024-03-02T10:18:57;15.00;62.60
21255;DHT22;10785;50.674;17.954;2024-03-02T10:21:40;15.50;34.30
21255;DHT22;10785;50.674;17.954;2024-03-02T10:24:18;15.00;23.20
21255;DHT22;10785;50.674;17.954;2024-03-02T10:26:51;14.90;1.00
21255;DHT22;10785;50.674;17.954;2024-03-02T10:29:24;14.70;1.00
21255;DHT22;10785;50.674;17.954;2024-03-02T10:31:58;14.60;1.00
21255;DHT22;10785;50.674;17.954;2024-03-02T10:34:33;14.60;1.00
21255;DHT22;10785;50.674;17.954;2024-03-02T10:37:11;14.60;1.00
21255;DHT22;10785;50.674;17.954;2024-03-02T10:39:47;14.60;1.00
21255;DHT22;10785;50.674;17.954;2024-03-02T10:42:19;14.60;1.00
21255;DHT22;10785;50.674;17.954;2024-03-02T10:45:05;14.60;1.00
21255;DHT22;10785;50.674;17.954;2024-03-02T10:47:39;14.60;1.00
21255;DHT22;10785;50.674;17.954;2024-03-02T10:50:19;14.50;1.00
21255;DHT22;10785;50.674;17.954;2024-03-02T10:52:50;14.40;1.00
21255;DHT22;10785;50.674;17.954;2024-03-02T10:55:30;14.40;1.00
21255;DHT22;10785;50.674;17.954;2024-03-02T10:58:08;14.30;1.00
21255;DHT22;10785;50.674;17.954;2024-03-02T11:00:53;14.30;1.00
21255;DHT22;10785;50.674;17.954;2024-03-02T11:03:36;14.10;1.00
21255;DHT22;10785;50.674;17.954;2024-03-02T11:06:16;14.20;1.00
21255;DHT22;10785;50.674;17.954;2024-03-02T11:08:51;14.10;1.00
21255;DHT22;10785;50.674;17.954;2024-03-02T11:11:33;14.20;1.00
21255;DHT22;10785;50.674;17.954;2024-03-02T11:14:17;14.30;1.00
21255;DHT22;10785;50.674;17.954;2024-03-02T11:17:00;14.20;1.00
21255;DHT22;10785;50.674;17.954;2024-03-02T11:19:40;14.30;1.00
21255;DHT22;10785;50.674;17.954;2024-03-02T11:22:16;14.30;1.00
21255;DHT22;10785;50.674;17.954;2024-03-02T11:24:56;14.40;1.00
21255;DHT22;10785;50.674;17.954;2024-03-02T11:28:00;14.40;1.00
21255;DHT22;10785;50.674;17.954;2024-03-02T11:30:52;14.40;1.00
21255;DHT22;10785;50.674;17.954;2024-03-02T11:33:35;14.40;1.00
21255;DHT22;10785;50.674;17.954;2024-03-02T11:36:12;14.40;1.00
21255;DHT22;10785;50.674;17.954;2024-03-02T11:38:52;14.50;1.00
21255;DHT22;10785;50.674;17.954;2024-03-02T11:41:26;14.50;1.00
21255;DHT22;10785;50.674;17.954;2024-03-02T11:44:06;14.40;1.00
21255;DHT22;10785;50.674;17.954;2024-03-02T11:46:46;14.40;1.00
21255;DHT22;10785;50.674;17.954;2024-03-02T11:49:39;14.50;1.00
21255;DHT22;10785;50.674;17.954;2024-03-02T11:52:15;14.60;1.00
21255;DHT22;10785;50.674;17.954;2024-03-02T11:54:49;14.50;1.00
21255;DHT22;10785;50.674;17.954;2024-03-02T11:57:28;14.40;1.00
21255;DHT22;10785;50.674;17.954;2024-03-02T12:00:01;14.50;1.00
21255;DHT22;10785;50.674;17.954;2024-03-02T12:02:38;14.40;1.00
21255;DHT22;10785;50.674;17.954;2024-03-02T12:05:22;14.40;1.00
21255;DHT22;10785;50.674;17.954;2024-03-02T12:08:00;14.40;1.00
21255;DHT22;10785;50.674;17.954;2024-03-02T12:10:37;14.50;1.00
21255;DHT22;10785;50.674;17.954;2024-03-02T12:13:13;14.40;1.00
21255;DHT22;10785;50.674;17.954;2024-03-02T12:15:46;14.50;1.00
21255;DHT22;10785;50.674;17.954;2024-03-02T12:18:22;14.70;1.00
21255;DHT22;10785;50.674;17.954;2024-03-02T12:21:12;14.80;1.00
21255;DHT22;10785;50.674;17.954;2024-03-02T12:23:48;14.90;1.00
21255;DHT22;10785;50.674;17.954;2024-03-02T12:26:24;14.90;1.00
21255;DHT22;10785;50.674;17.954;2024-03-02T12:29:01;15.00;1.00
21255;DHT22;10785;50.674;17.954;2024-03-02T12:31:37;15.00;1.00
21255;DHT22;10785;50.674;17.954;2024-03-02T12:34:15;14.90;1.00
21255;DHT22;10785;50.674;17.954;2024-03-02T12:36:54;15.30;1.00
21255;DHT22;10785;50.674;17.954;2024-03-02T12:39:26;14.70;1.00
21255;DHT22;10785;50.674;17.954;2024-03-02T12:42:03;14.70;1.00
21255;DHT22;10785;50.674;17.954;2024-03-02T12:44:40;14.80;1.00
21255;DHT22;10785;50.674;17.954;2024-03-02T12:47:15;14.70;1.00
21255;DHT22;10785;50.674;17.954;2024-03-02T12:49:45;14.70;1.00
21255;DHT22;10785;50.674;17.954;2024-03-02T12:52:27;14.70;1.00
21255;DHT22;10785;50.674;17.954;2024-03-02T12:55:12;14.70;1.00
21255;DHT22;10785;50.674;17.954;2024-03-02T12:57:50;14.70;1.00
21255;DHT22;10785;50.674;17.954;2024-03-02T13:00:24;14.70;1.00
21255;DHT22;10785;50.674;17.954;2024-03-02T13:02:57;14.70;1.00
21255;DHT22;10785;50.674;17.954;2024-03-02T13:05:32;14.70;1.00
21255;DHT22;10785;50.674;17.954;2024-03-02T13:08:12;14.70;1.00
21255;DHT22;10785;50.674;17.954;2024-03-02T13:10:45;14.60;1.00
21255;DHT22;10785;50.674;17.954;2024-03-02T13:13:20;14.60;1.00
21255;DHT22;10785;50.674;17.954;2024-03-02T13:15:55;14.70;1.00
21255;DHT22;10785;50.674;17.954;2024-03-02T13:18:25;14.70;1.00
21255;DHT22;10785;50.674;17.954;2024-03-02T13:20:55;14.70;1.00
21255;DHT22;10785;50.674;17.954;2024-03-02T13:23:30;14.60;1.00
21255;DHT22;10785;50.674;17.954;2024-03-02T13:25:59;14.50;1.00
21255;DHT22;10785;50.674;17.954;2024-03-02T13:28:34;14.50;1.00
21255;DHT22;10785;50.674;17.954;2024-03-02T13:31:06;14.50;1.00
21255;DHT22;10785;50.674;17.954;2024-03-02T13:33:43;14.50;1.00
21255;DHT22;10785;50.674;17.954;2024-03-02T13:36:23;14.50;1.00
21255;DHT22;10785;50.674;17.954;2024-03-02T13:39:03;14.50;1.00
21255;DHT22;10785;50.674;17.954;2024-03-02T13:41:39;14.50;1.00
21255;DHT22;10785;50.674;17.954;2024-03-02T13:44:25;14.50;1.00
21255;DHT22;10785;50.674;17.954;2024-03-02T13:47:03;14.50;1.00
21255;DHT22;10785;50.674;17.954;2024-03-02T13:49:40;14.50;1.00
21255;DHT22;10785;50.674;17.954;2024-03-02T13:52:22;14.50;1.00
21255;DHT22;10785;50.674;17.954;2024-03-02T13:55:06;14.50;1.00
21255;DHT22;10785;50.674;17.954;2024-03-02T13:57:42;16.20;1.00
21255;DHT22;10785;50.674;17.954;2024-03-02T14:00:20;14.40;1.00
21255;DHT22;10785;50.674;17.954;2024-03-02T14:03:02;14.40;1.00
21255;DHT22;10785;50.674;17.954;2024-03-02T14:05:37;14.30;1.00
21255;DHT22;10785;50.674;17.954;2024-03-02T14:08:13;14.30;1.00
21255;DHT22;10785;50.674;17.954;2024-03-02T14:11:00;14.20;1.00
21255;DHT22;10785;50.674;17.954;2024-03-02T14:13:35;14.30;1.00
21255;DHT22;10785;50.674;17.954;2024-03-02T14:16:06;14.20;1.00
21255;DHT22;10785;50.674;17.954;2024-03-02T14:18:39;14.20;1.00
21255;DHT22;10785;50.674;17.954;2024-03-02T14:21:22;14.20;1.00
21255;DHT22;10785;50.674;17.954;2024-03-02T14:24:02;14.20;1.00
21255;DHT22;10785;50.674;17.954;2024-03-02T14:26:39;14.10;1.00
21255;DHT22;10785;50.674;17.954;2024-03-02T14:29:13;13.80;1.00
21255;DHT22;10785;50.674;17.954;2024-03-02T14:31:50;14.00;1.00
21255;DHT22;10785;50.674;17.954;2024-03-02T14:34:27;14.10;1.00
21255;DHT22;10785;50.674;17.954;2024-03-02T14:37:04;13.90;1.00
21255;DHT22;10785;50.674;17.954;2024-03-02T14:39:44;13.90;1.00
21255;DHT22;10785;50.674;17.954;2024-03-02T14:42:27;13.80;1.00
21255;DHT22;10785;50.674;17.954;2024-03-02T14:45:14;13.80;1.00
21255;DHT22;10785;50.674;17.954;2024-03-02T14:47:58;13.70;1.00
21255;DHT22;10785;50.674;17.954;2024-03-02T14:50:35;15.30;1.00
21255;DHT22;10785;50.674;17.954;2024-03-02T14:53:04;13.70;1.00
21255;DHT22;10785;50.674;17.954;2024-03-02T14:55:35;13.70;1.00
21255;DHT22;10785;50.674;17.954;2024-03-02T14:58:05;13.70;1.00
21255;DHT22;10785;50.674;17.954;2024-03-02T15:00:36;13.70;1.00
21255;DHT22;10785;50.674;17.954;2024-03-02T15:03:05;13.70;1.00
21255;DHT22;10785;50.674;17.954;2024-03-02T15:05:36;13.60;1.00
21255;DHT22;10785;50.674;17.954;2024-03-02T15:08:06;13.60;1.00
21255;DHT22;10785;50.674;17.954;2024-03-02T15:10:35;13.60;1.00
21255;DHT22;10785;50.674;17.954;2024-03-02T15:13:06;13.60;1.00
21255;DHT22;10785;50.674;17.954;2024-03-02T15:15:36;13.60;1.00
21255;DHT22;10785;50.674;17.954;2024-03-02T15:18:06;13.50;1.00
21255;DHT22;10785;50.674;17.954;2024-03-02T15:20:36;13.40;1.00
21255;DHT22;10785;50.674;17.954;2024-03-02T15:23:05;13.40;1.00
21255;DHT22;10785;50.674;17.954;2024-03-02T15:25:34;13.30;1.00
21255;DHT22;10785;50.674;17.954;2024-03-02T15:28:06;13.20;1.00
21255;DHT22;10785;50.674;17.954;2024-03-02T15:30:36;13.10;1.00
21255;DHT22;10785;50.674;17.954;2024-03-02T15:33:05;13.00;1.00
21255;DHT22;10785;50.674;17.954;2024-03-02T15:35:35;12.90;1.00
21255;DHT22;10785;50.674;17.954;2024-03-02T15:38:04;12.70;1.00
21255;DHT22;10785;50.674;17.954;2024-03-02T15:40:44;12.70;1.00
21255;DHT22;10785;50.674;17.954;2024-03-02T15:43:15;12.80;1.00
21255;DHT22;10785;50.674;17.954;2024-03-02T15:45:45;12.60;1.00
21255;DHT22;10785;50.674;17.954;2024-03-02T15:48:14;12.50;1.00
21255;DHT22;10785;50.674;17.954;2024-03-02T15:50:43;12.40;1.00
21255;DHT22;10785;50.674;17.954;2024-03-02T15:53:14;12.20;1.00
21255;DHT22;10785;50.674;17.954;2024-03-02T15:55:46;12.30;1.00
21255;DHT22;10785;50.674;17.954;2024-03-02T15:58:17;12.20;1.00
21255;DHT22;10785;50.674;17.954;2024-03-02T16:00:47;12.20;1.00
21255;DHT22;10785;50.674;17.954;2024-03-02T16:03:17;12.20;1.00
21255;DHT22;10785;50.674;17.954;2024-03-02T16:05:47;12.10;1.00
21255;DHT22;10785;50.674;17.954;2024-03-02T16:08:16;12.10;1.00
21255;DHT22;10785;50.674;17.954;2024-03-02T16:10:46;12.00;1.00
21255;DHT22;10785;50.674;17.954;2024-03-02T16:13:17;12.00;1.00
21255;DHT22;10785;50.674;17.954;2024-03-02T16:15:47;11.90;1.00
21255;DHT22;10785;50.674;17.954;2024-03-02T16:18:18;11.90;1.00
21255;DHT22;10785;50.674;17.954;2024-03-02T16:20:47;11.90;1.00
21255;DHT22;10785;50.674;17.954;2024-03-02T16:23:17;11.80;1.00
21255;DHT22;10785;50.674;17.954;2024-03-02T16:25:46;11.80;1.00
21255;DHT22;10785;50.674;17.954;2024-03-02T16:28:17;11.70;1.00
21255;DHT22;10785;50.674;17.954;2024-03-02T16:30:47;11.70;1.00
21255;DHT22;10785;50.674;17.954;2024-03-02T16:33:16;11.70;1.00
21255;DHT22;10785;50.674;17.954;2024-03-02T16:35:46;11.60;1.00
21255;DHT22;10785;50.674;17.954;2024-03-02T16:38:16;12.10;1.00
21255;DHT22;10785;50.674;17.954;2024-03-02T16:40:46;11.80;1.00
21255;DHT22;10785;50.674;17.954;2024-03-02T16:43:18;11.60;1.00
21255;DHT22;10785;50.674;17.954;2024-03-02T16:45:50;11.50;1.00